Time;durP1;ratioP1;P1;durP2;ratioP2;P2;SDS_P1;SDS_P2;PMS_P1;PMS_P2;Temp;Humidity;BMP_temperature;BMP_pressure;BME280_temperature;BME280_humidity;BME280_pressure;Samples;Min_cycle;Max_cycle;Signal;HPM_P1;HPM_P2
2022/06/14 00:02:19;;;;;;;14.35;9.75;;;28.20;99.90;;;;;;4155648;28;20049;-71
2022/06/14 00:04:23;;;;;;;15.02;8.50;;;28.20;99.90;;;;;;4175799;28;20064;-70
2022/06/14 00:06:30;;;;;;;11.57;7.40;;;28.30;99.90;;;;;;4170260;28;20393;-70
2022/06/14 00:08:39;;;;;;;13.55;8.50;;;28.30;99.90;;;;;;4128199;28;20465;-70
2022/06/14 00:10:43;;;;;;;15.68;8.23;;;28.30;99.90;;;;;;4153698;28;20471;-70
2022/06/14 00:12:48;;;;;;;13.45;7.70;;;28.30;99.90;;;;;;4145763;28;20034;-70
2022/06/14 00:14:58;;;;;;;11.85;7.30;;;28.40;99.90;;;;;;4159916;28;20474;-70
2022/06/14 00:17:04;;;;;;;14.35;7.40;;;28.50;99.90;;;;;;4156464;28;20049;-71
2022/06/14 00:19:08;;;;;;;11.43;7.50;;;28.50;99.90;;;;;;4161163;28;20053;-70
2022/06/14 00:21:17;;;;;;;15.07;8.45;;;28.50;99.90;;;;;;4164608;28;20083;-71
2022/06/14 00:23:24;;;;;;;14.93;8.05;;;28.50;99.90;;;;;;4161615;28;20609;-70
2022/06/14 00:25:34;;;;;;;14.48;8.13;;;28.50;99.90;;;;;;4165831;28;20045;-70
2022/06/14 00:27:40;;;;;;;16.05;7.70;;;28.60;99.90;;;;;;4155515;28;20053;-70
2022/06/14 00:29:44;;;;;;;10.35;7.40;;;28.60;99.90;;;;;;4160977;28;20053;-67
2022/06/14 00:31:49;;;;;;;12.25;7.35;;;28.70;99.90;;;;;;4144620;28;20080;-68
2022/06/14 00:33:57;;;;;;;12.98;7.10;;;28.70;99.90;;;;;;4174815;28;20068;-67
2022/06/14 00:36:05;;;;;;;15.70;7.57;;;28.70;99.90;;;;;;4162298;28;20069;-67
2022/06/14 00:38:14;;;;;;;12.77;7.22;;;28.80;99.90;;;;;;4144585;28;20190;-67
2022/06/14 00:40:25;;;;;;;15.43;7.85;;;28.90;99.90;;;;;;4160875;28;20124;-67
2022/06/14 00:42:30;;;;;;;16.50;7.93;;;28.90;99.90;;;;;;4145047;28;20050;-67
2022/06/14 00:44:34;;;;;;;12.95;7.82;;;29.00;99.90;;;;;;4163122;28;20052;-67
2022/06/14 00:46:55;;;;;;;11.68;7.68;;;29.10;99.90;;;;;;4144770;28;20203;-67
2022/06/14 00:49:07;;;;;;;11.48;7.63;;;29.10;99.90;;;;;;4160216;28;20099;-68
2022/06/14 00:51:25;;;;;;;18.02;7.97;;;29.20;99.90;;;;;;4160784;28;20045;-67
2022/06/14 00:53:48;;;;;;;11.48;7.25;;;29.20;99.90;;;;;;4144888;28;20465;-67
2022/06/14 00:56:05;;;;;;;13.63;8.65;;;29.30;99.90;;;;;;4155371;28;20068;-69
2022/06/14 00:58:17;;;;;;;14.27;9.18;;;29.30;99.90;;;;;;4144507;28;20064;-67
2022/06/14 01:00:31;;;;;;;13.95;7.97;;;29.40;99.90;;;;;;4144396;28;20834;-68
2022/06/14 01:02:38;;;;;;;;;;;29.40;99.90;;;;;;4139314;28;20066;-68
2022/06/14 01:04:46;;;;;;;13.55;8.55;;;29.50;99.90;;;;;;4155754;28;19925;-66
2022/06/14 01:06:56;;;;;;;14.68;7.85;;;29.50;99.90;;;;;;4161347;28;20103;-68
2022/06/14 01:09:09;;;;;;;15.63;8.30;;;29.50;99.90;;;;;;4151001;28;20072;-67
2022/06/14 01:11:18;;;;;;;16.93;8.67;;;29.60;99.90;;;;;;4144112;28;20451;-68
2022/06/14 01:13:27;;;;;;;14.63;8.13;;;29.60;99.90;;;;;;4112163;28;20047;-68
2022/06/14 01:15:33;;;;;;;13.02;8.95;;;29.70;99.90;;;;;;4172690;28;20033;-68
2022/06/14 01:17:43;;;;;;;16.90;8.65;;;29.70;99.90;;;;;;4176107;28;20091;-68
2022/06/14 01:19:52;;;;;;;14.90;8.40;;;29.70;99.90;;;;;;4112173;28;20059;-68
2022/06/14 01:22:07;;;;;;;15.65;8.77;;;29.70;99.90;;;;;;4157967;28;20085;-68
2022/06/14 01:24:12;;;;;;;14.48;8.98;;;29.70;99.90;;;;;;4164178;28;20053;-67
2022/06/14 01:26:20;;;;;;;12.13;7.97;;;29.70;99.90;;;;;;4161987;28;20072;-67
2022/06/14 01:28:25;;;;;;;14.90;8.35;;;29.70;99.90;;;;;;4161271;28;20077;-67
2022/06/14 01:30:31;;;;;;;15.38;8.10;;;29.80;99.90;;;;;;4163122;28;20053;-67
2022/06/14 01:32:45;;;;;;;13.63;7.45;;;29.80;99.90;;;;;;4161349;28;20038;-68
2022/06/14 01:34:53;;;;;;;15.13;8.15;;;29.90;99.90;;;;;;4160977;28;20061;-68
2022/06/14 01:36:58;;;;;;;11.40;7.90;;;29.90;99.90;;;;;;4128772;28;20038;-67
2022/06/14 01:39:12;;;;;;;13.65;8.32;;;30.00;99.90;;;;;;4144440;28;20416;-66
2022/06/14 01:41:28;;;;;;;13.25;7.82;;;30.00;99.90;;;;;;4143639;28;20053;-67
2022/06/14 01:43:48;;;;;;;13.13;8.25;;;30.10;99.90;;;;;;4167588;28;20053;-67
2022/06/14 01:45:59;;;;;;;13.75;8.52;;;30.20;99.90;;;;;;4162343;28;20050;-68
2022/06/14 01:48:07;;;;;;;17.08;8.23;;;30.20;99.90;;;;;;4144749;28;20049;-69
2022/06/14 01:52:53;;;;;;;14.95;8.63;;;30.30;99.90;;;;;;4171515;28;20212;-69
2022/06/14 01:55:17;;;;;;;14.23;7.57;;;30.40;99.90;;;;;;4147107;28;20034;-66
2022/06/14 01:57:49;;;;;;;13.13;7.68;;;30.40;99.90;;;;;;4152313;28;20042;-67
2022/06/14 02:00:00;;;;;;;14.52;7.75;;;30.50;99.90;;;;;;4160683;28;20052;-68
2022/06/14 02:02:26;;;;;;;15.57;8.65;;;30.60;99.90;;;;;;4171698;28;20047;-66
2022/06/14 02:04:47;;;;;;;12.00;8.18;;;30.60;99.90;;;;;;4155207;28;20100;-68
2022/06/14 02:07:16;;;;;;;12.95;7.97;;;30.50;99.90;;;;;;4144111;28;20049;-66
2022/06/14 02:09:36;;;;;;;14.93;8.55;;;30.60;99.90;;;;;;4144265;28;20081;-67
2022/06/14 02:11:45;;;;;;;13.32;7.05;;;30.60;99.90;;;;;;4129441;28;20105;-67
2022/06/14 02:14:01;;;;;;;16.50;8.70;;;30.70;99.90;;;;;;4147181;28;20041;-66
2022/06/14 02:16:08;;;;;;;12.98;7.03;;;30.70;99.90;;;;;;4155423;28;20057;-67
2022/06/14 02:18:23;;;;;;;14.30;7.30;;;30.70;99.90;;;;;;4153237;28;20568;-66
2022/06/14 02:20:34;;;;;;;16.73;7.55;;;30.80;99.90;;;;;;4144097;28;20161;-67
2022/06/14 02:22:52;;;;;;;15.60;8.02;;;30.80;99.90;;;;;;4142540;28;20500;-66
2022/06/14 02:25:14;;;;;;;14.02;7.75;;;30.80;99.90;;;;;;4146983;28;20053;-66
2022/06/14 02:27:38;;;;;;;15.80;7.53;;;30.80;99.90;;;;;;4110819;28;20538;-66
2022/06/14 02:29:48;;;;;;;12.40;7.07;;;30.90;99.90;;;;;;4144569;28;20056;-66
2022/06/14 02:32:07;;;;;;;16.48;8.48;;;30.90;99.90;;;;;;4160442;28;20050;-64
2022/06/14 02:34:23;;;;;;;11.00;7.18;;;31.00;99.90;;;;;;4128121;28;20039;-64
2022/06/14 02:36:45;;;;;;;13.37;6.63;;;31.00;99.90;;;;;;4160263;28;20092;-64
2022/06/14 02:39:10;;;;;;;12.00;6.82;;;31.10;99.90;;;;;;4153430;28;20073;-65
2022/06/14 02:41:21;;;;;;;11.52;6.95;;;31.10;99.90;;;;;;4160392;28;20133;-65
2022/06/14 02:43:53;;;;;;;13.45;6.53;;;31.10;99.90;;;;;;4153951;28;20047;-64
2022/06/14 02:46:12;;;;;;;12.25;6.93;;;31.30;99.90;;;;;;4162520;28;20118;-64
2022/06/14 02:48:22;;;;;;;10.48;6.63;;;31.40;99.90;;;;;;4160313;28;20135;-65
2022/06/14 02:50:29;;;;;;;11.65;6.22;;;31.40;99.90;;;;;;4161038;28;20055;-65
2022/06/14 02:53:20;;;;;;;14.68;6.38;;;31.50;99.90;;;;;;4156061;28;20057;-66
2022/06/14 02:55:43;;;;;;;12.77;6.90;;;31.60;99.90;;;;;;4137595;28;20038;-66
2022/06/14 02:57:51;;;;;;;10.32;6.18;;;31.60;99.90;;;;;;4139403;28;20375;-64
2022/06/14 03:00:05;;;;;;;10.52;6.30;;;31.60;99.90;;;;;;4156124;28;20406;-67
2022/06/14 03:02:33;;;;;;;10.60;6.80;;;31.70;99.90;;;;;;4147163;28;20056;-64
2022/06/14 03:04:58;;;;;;;13.93;5.97;;;31.60;99.90;;;;;;4164389;28;20049;-66
2022/06/14 03:07:12;;;;;;;12.13;6.45;;;31.60;99.90;;;;;;4159613;28;20053;-66
2022/06/14 03:09:22;;;;;;;11.48;6.40;;;31.60;99.90;;;;;;4147375;28;20038;-65
2022/06/14 03:11:42;;;;;;;11.88;6.43;;;31.70;99.90;;;;;;4117747;28;20081;-64
2022/06/14 03:13:49;;;;;;;11.55;5.85;;;31.70;99.90;;;;;;4157600;28;20054;-68
2022/06/14 03:16:11;;;;;;;14.18;6.53;;;31.80;99.90;;;;;;4172705;28;20045;-67
2022/06/14 03:18:30;;;;;;;8.10;5.80;;;32.00;99.90;;;;;;4161699;28;20061;-67
2022/06/14 03:20:52;;;;;;;10.32;5.82;;;32.00;99.90;;;;;;4162681;28;20567;-67
2022/06/14 03:23:00;;;;;;;10.52;5.95;;;32.00;99.90;;;;;;4170324;28;20534;-66
2022/06/14 03:25:16;;;;;;;10.00;6.00;;;32.00;99.90;;;;;;4168739;28;20507;-67
2022/06/14 03:27:43;;;;;;;12.77;6.35;;;32.10;99.90;;;;;;4162103;28;20121;-66
2022/06/14 03:29:55;;;;;;;10.48;5.80;;;32.20;99.90;;;;;;4162714;28;20103;-66
2022/06/14 03:32:24;;;;;;;10.70;6.20;;;32.30;99.90;;;;;;4155556;28;20048;-66
2022/06/14 03:34:33;;;;;;;11.05;5.90;;;32.40;99.90;;;;;;4144680;28;20041;-64
2022/06/14 03:36:38;;;;;;;9.45;5.45;;;32.40;99.90;;;;;;4146405;28;20076;-67
2022/06/14 03:38:51;;;;;;;9.20;5.82;;;32.50;99.90;;;;;;4131547;28;20517;-66
2022/06/14 03:40:55;;;;;;;12.65;6.40;;;32.50;99.70;;;;;;4162685;28;20049;-66
2022/06/14 03:43:02;;;;;;;8.55;5.65;;;32.50;99.90;;;;;;4161052;28;20049;-66
2022/06/14 03:45:08;;;;;;;12.23;6.15;;;32.60;99.50;;;;;;4154092;28;20104;-65
2022/06/14 03:47:15;;;;;;;9.52;5.10;;;32.50;99.70;;;;;;4149969;28;20072;-68
2022/06/14 03:49:22;;;;;;;10.93;6.07;;;32.60;99.00;;;;;;4152326;28;20056;-66
2022/06/14 03:51:45;;;;;;;13.02;5.90;;;32.60;98.80;;;;;;4121612;28;20081;-67
2022/06/14 03:54:12;;;;;;;12.85;5.65;;;32.70;99.20;;;;;;4132178;28;20069;-67
2022/06/14 03:56:30;;;;;;;11.20;5.68;;;32.70;99.00;;;;;;4089453;28;20110;-67
2022/06/14 03:58:59;;;;;;;9.88;5.60;;;32.50;98.40;;;;;;4129229;28;20485;-67
2022/06/14 04:01:16;;;;;;;11.00;5.68;;;32.40;98.50;;;;;;4144454;28;20493;-66
2022/06/14 04:03:38;;;;;;;8.20;5.35;;;32.60;98.60;;;;;;4082018;29;20056;-66
2022/06/14 04:06:09;;;;;;;10.80;5.57;;;32.70;98.60;;;;;;4140120;28;20137;-66
2022/06/14 04:08:36;;;;;;;9.55;5.30;;;32.90;98.70;;;;;;4145152;28;20062;-67
2022/06/14 04:10:45;;;;;;;11.45;5.35;;;33.10;98.60;;;;;;4124632;28;20042;-67
2022/06/14 04:13:01;;;;;;;10.88;5.30;;;33.20;98.10;;;;;;4102899;28;20046;-66
2022/06/14 04:15:25;;;;;;;11.07;5.03;;;33.10;98.10;;;;;;4120283;28;20042;-67
2022/06/14 04:17:50;;;;;;;9.40;5.28;;;33.20;98.20;;;;;;4143636;28;20073;-67
2022/06/14 04:20:14;;;;;;;8.13;4.78;;;33.30;98.30;;;;;;4115008;28;20059;-67
2022/06/14 04:22:25;;;;;;;;;;;33.50;98.20;;;;;;4129987;28;20054;-66
2022/06/14 04:24:57;;;;;;;8.93;5.30;;;33.60;96.90;;;;;;4151702;28;20631;-66
2022/06/14 04:27:17;;;;;;;12.35;5.28;;;33.60;96.10;;;;;;4145954;28;20049;-67
2022/06/14 04:29:44;;;;;;;9.90;5.05;;;33.50;96.10;;;;;;4145178;28;20121;-67
2022/06/14 04:32:05;;;;;;;10.13;5.60;;;33.50;96.00;;;;;;4145365;28;20045;-68
2022/06/14 04:34:26;;;;;;;10.15;5.38;;;33.50;97.00;;;;;;4157205;28;20431;-67
2022/06/14 04:36:38;;;;;;;9.88;5.43;;;33.40;97.80;;;;;;4154581;28;20037;-67
2022/06/14 04:38:52;;;;;;;10.07;5.07;;;33.50;97.90;;;;;;4139080;28;20189;-66
2022/06/14 04:41:28;;;;;;;9.65;5.40;;;33.70;96.80;;;;;;4144761;28;20800;-66
2022/06/14 04:43:47;;;;;;;9.80;4.65;;;33.90;95.50;;;;;;4153274;28;20057;-66
2022/06/14 04:45:57;;;;;;;8.65;4.82;;;34.00;95.40;;;;;;4141090;28;20795;-66
2022/06/14 04:48:10;;;;;;;8.35;4.25;;;34.20;95.10;;;;;;4144915;28;20104;-67
2022/06/14 04:50:20;;;;;;;8.52;5.20;;;34.20;94.50;;;;;;4141973;28;20108;-66
2022/06/14 04:52:39;;;;;;;10.45;4.78;;;34.10;94.70;;;;;;4117938;28;20517;-65
2022/06/14 04:54:57;;;;;;;8.57;5.10;;;34.20;96.50;;;;;;4156500;28;20559;-66
2022/06/14 04:57:14;;;;;;;7.78;4.40;;;34.40;96.10;;;;;;4161564;28;20048;-66
2022/06/14 04:59:41;;;;;;;7.35;4.47;;;34.50;95.60;;;;;;4160197;28;20167;-66
2022/06/14 05:01:56;;;;;;;8.13;4.57;;;34.40;95.00;;;;;;4166496;28;20053;-66
2022/06/14 05:04:16;;;;;;;8.25;4.32;;;34.10;95.70;;;;;;4134680;28;20436;-65
2022/06/14 05:06:38;;;;;;;11.38;4.95;;;34.30;95.80;;;;;;4144324;28;20440;-66
2022/06/14 05:08:57;;;;;;;10.30;4.93;;;34.40;95.80;;;;;;4144107;28;20104;-66
2022/06/14 05:11:10;;;;;;;6.38;4.55;;;34.40;95.40;;;;;;4143602;28;20104;-66
2022/06/14 05:13:37;;;;;;;9.20;5.45;;;34.60;95.60;;;;;;4144054;28;20049;-66
2022/06/14 05:15:48;;;;;;;8.13;4.45;;;34.70;95.20;;;;;;4130619;28;20133;-66
2022/06/14 05:18:14;;;;;;;9.93;4.65;;;34.70;95.60;;;;;;4145067;28;20081;-65
2022/06/14 05:20:38;;;;;;;8.07;4.60;;;34.70;95.30;;;;;;4162660;28;20760;-65
2022/06/14 05:22:48;;;;;;;8.88;4.60;;;34.80;93.10;;;;;;4144812;28;20037;-65
2022/06/14 05:24:52;;;;;;;8.25;4.18;;;34.60;93.20;;;;;;4122581;28;20050;-64
2022/06/14 05:27:19;;;;;;;12.15;4.88;;;34.60;93.50;;;;;;4161565;28;20492;-65
2022/06/14 05:29:47;;;;;;;7.03;4.15;;;34.80;93.50;;;;;;4162137;28;20830;-66
2022/06/14 05:32:10;;;;;;;8.60;4.47;;;34.70;93.10;;;;;;4162497;28;20037;-66
2022/06/14 05:34:24;;;;;;;7.10;4.55;;;34.70;93.30;;;;;;4160689;28;20508;-65
2022/06/14 05:36:42;;;;;;;12.13;4.97;;;34.70;93.80;;;;;;4150351;28;20063;-66
2022/06/14 05:39:06;;;;;;;9.80;4.90;;;34.80;93.80;;;;;;4171327;28;20523;-65
2022/06/14 05:41:13;;;;;;;8.00;4.50;;;34.90;94.50;;;;;;4157042;28;20396;-65
2022/06/14 05:43:31;;;;;;;8.43;4.20;;;34.70;94.10;;;;;;4160736;28;20175;-65
2022/06/14 05:45:40;;;;;;;9.10;4.60;;;34.60;94.00;;;;;;4169872;28;20392;-65
2022/06/14 05:47:54;;;;;;;9.20;4.60;;;34.50;94.20;;;;;;4128264;28;20050;-65
2022/06/14 05:50:03;;;;;;;10.13;4.97;;;34.50;94.50;;;;;;4116788;28;20705;-65
2022/06/14 05:52:23;;;;;;;10.85;5.47;;;34.70;94.20;;;;;;4157041;28;20680;-65
2022/06/14 05:54:44;;;;;;;8.07;4.43;;;34.90;94.00;;;;;;4160586;28;20048;-65
2022/06/14 05:57:05;;;;;;;8.70;4.43;;;34.90;93.70;;;;;;4143775;28;20052;-65
2022/06/14 05:59:14;;;;;;;8.13;4.63;;;34.70;93.60;;;;;;4159899;28;20069;-65
2022/06/14 06:01:56;;;;;;;6.88;4.15;;;34.60;93.90;;;;;;4135783;28;20047;-65
2022/06/14 06:04:16;;;;;;;7.65;3.67;;;34.50;93.70;;;;;;4174708;28;20055;-66
2022/06/14 06:06:42;;;;;;;7.30;3.60;;;34.30;93.70;;;;;;4149032;28;20042;-65
2022/06/14 06:08:51;;;;;;;7.57;3.85;;;34.60;93.20;;;;;;4167316;28;20092;-65
2022/06/14 06:11:02;;;;;;;6.95;3.72;;;34.60;92.80;;;;;;4159465;28;20068;-65
2022/06/14 06:13:11;;;;;;;8.73;3.80;;;34.80;92.30;;;;;;4156750;28;20046;-65
2022/06/14 06:15:31;;;;;;;6.70;3.20;;;34.70;92.50;;;;;;4125865;28;20054;-65
2022/06/14 06:17:42;;;;;;;8.43;3.28;;;34.60;90.90;;;;;;4154567;28;20060;-65
2022/06/14 06:20:00;;;;;;;7.65;2.95;;;34.70;91.80;;;;;;4160601;28;20045;-65
2022/06/14 06:22:10;;;;;;;6.43;3.33;;;35.00;91.50;;;;;;4167169;28;20044;-65
2022/06/14 06:24:23;;;;;;;9.75;3.92;;;35.30;91.20;;;;;;4133503;28;20066;-65
2022/06/14 06:26:30;;;;;;;8.45;3.63;;;35.50;90.70;;;;;;4139374;28;20050;-64
2022/06/14 06:28:39;;;;;;;9.25;4.38;;;35.70;91.50;;;;;;4159617;28;20718;-63
2022/06/14 06:31:05;;;;;;;7.65;4.20;;;35.80;91.30;;;;;;4158679;28;20820;-65
2022/06/14 06:33:10;;;;;;;6.45;3.85;;;35.70;91.00;;;;;;4164691;28;20042;-65
2022/06/14 06:35:15;;;;;;;9.70;4.03;;;35.70;91.60;;;;;;4136247;28;20042;-66
2022/06/14 06:37:33;;;;;;;6.32;3.40;;;35.90;91.50;;;;;;4153056;28;20134;-66
2022/06/14 06:39:41;;;;;;;6.50;3.67;;;36.00;90.10;;;;;;4134395;28;20125;-65
2022/06/14 06:41:55;;;;;;;7.43;3.90;;;36.00;90.30;;;;;;4130643;28;20056;-65
2022/06/14 06:44:05;;;;;;;7.72;4.10;;;36.10;91.40;;;;;;4171499;28;20069;-65
2022/06/14 06:46:11;;;;;;;10.65;4.57;;;36.00;91.90;;;;;;4155342;28;20054;-65
2022/06/14 06:48:25;;;;;;;10.20;4.30;;;35.80;92.20;;;;;;4130508;28;20050;-65
2022/06/14 06:50:43;;;;;;;8.13;4.30;;;35.60;92.40;;;;;;4149778;28;20046;-65
2022/06/14 06:53:06;;;;;;;6.93;3.58;;;35.50;92.40;;;;;;4156978;28;20053;-66
2022/06/14 06:55:32;;;;;;;7.75;3.65;;;35.50;92.10;;;;;;4168517;28;20091;-65
2022/06/14 06:57:40;;;;;;;5.47;3.58;;;35.70;91.30;;;;;;4140961;28;20042;-65
2022/06/14 06:59:45;;;;;;;6.97;3.70;;;35.60;91.40;;;;;;4159162;28;20067;-65
2022/06/14 07:01:53;;;;;;;6.93;4.00;;;35.50;91.10;;;;;;4135088;28;20059;-65
2022/06/14 07:04:12;;;;;;;6.47;3.40;;;35.80;91.00;;;;;;4140161;28;20046;-65
2022/06/14 07:06:29;;;;;;;7.10;3.53;;;35.90;91.20;;;;;;4144140;28;20057;-66
2022/06/14 07:08:56;;;;;;;8.65;4.22;;;35.80;91.70;;;;;;4159511;28;20068;-65
2022/06/14 07:11:06;;;;;;;9.02;4.07;;;35.70;91.70;;;;;;4144324;28;20551;-65
2022/06/14 07:13:23;;;;;;;8.25;3.72;;;35.70;90.80;;;;;;4171135;28;20136;-65
2022/06/14 07:15:46;;;;;;;7.63;3.75;;;35.80;90.90;;;;;;4113081;28;20047;-65
2022/06/14 07:18:10;;;;;;;8.48;4.28;;;35.80;91.30;;;;;;4166566;28;20515;-65
2022/06/14 07:20:27;;;;;;;7.57;4.07;;;35.80;90.70;;;;;;4137323;28;20131;-65
2022/06/14 07:22:40;;;;;;;8.18;4.10;;;35.80;90.30;;;;;;4101082;28;20065;-65
2022/06/14 07:25:04;;;;;;;7.45;3.90;;;35.80;90.90;;;;;;4158136;28;20065;-65
2022/06/14 07:27:27;;;;;;;7.30;3.80;;;35.70;91.20;;;;;;4161090;28;20050;-65
2022/06/14 07:29:48;;;;;;;7.07;3.47;;;35.50;91.20;;;;;;4091440;28;20074;-65
2022/06/14 07:32:18;;;;;;;7.13;4.05;;;35.60;91.10;;;;;;4143297;28;20054;-65
2022/06/14 07:34:32;;;;;;;6.65;4.30;;;35.60;91.10;;;;;;4163768;28;20049;-65
2022/06/14 07:36:47;;;;;;;8.60;4.13;;;35.70;90.90;;;;;;4146330;28;20125;-66
2022/06/14 07:39:14;;;;;;;7.13;3.63;;;35.80;90.60;;;;;;4162245;28;20400;-65
2022/06/14 07:41:39;;;;;;;10.00;4.18;;;35.70;91.00;;;;;;4140624;28;20041;-65
2022/06/14 07:43:58;;;;;;;9.38;4.22;;;35.60;91.60;;;;;;4132030;28;20121;-65
2022/06/14 07:46:09;;;;;;;9.50;3.90;;;35.70;91.20;;;;;;4163828;28;20099;-65
2022/06/14 07:48:18;;;;;;;8.90;3.90;;;35.70;91.10;;;;;;4146155;28;20053;-66
2022/06/14 07:50:39;;;;;;;8.15;4.07;;;35.80;90.90;;;;;;4135903;28;20136;-66
2022/06/14 07:52:49;;;;;;;9.38;4.00;;;35.80;90.90;;;;;;4160810;28;20084;-68
2022/06/14 07:55:05;;;;;;;8.18;4.00;;;35.60;89.70;;;;;;4149501;28;20476;-65
2022/06/14 07:57:22;;;;;;;7.35;4.53;;;35.50;89.40;;;;;;4146236;28;20046;-66
2022/06/14 07:59:32;;;;;;;8.27;4.10;;;35.50;90.10;;;;;;4139698;28;20421;-66
2022/06/14 08:01:46;;;;;;;7.60;4.00;;;35.70;89.90;;;;;;4145364;28;20152;-66
2022/06/14 08:03:53;;;;;;;7.43;4.15;;;35.90;90.10;;;;;;4129417;28;20046;-66
2022/06/14 08:06:01;;;;;;;6.70;4.28;;;36.10;89.70;;;;;;4163256;28;20049;-66
2022/06/14 08:08:06;;;;;;;6.53;3.78;;;36.10;90.20;;;;;;4146095;28;20054;-65
2022/06/14 08:10:26;;;;;;;10.48;4.03;;;36.20;90.20;;;;;;4129229;28;20054;-65
2022/06/14 08:12:52;;;;;;;9.52;4.10;;;36.30;90.10;;;;;;4164358;28;20157;-65
2022/06/14 08:15:01;;;;;;;10.77;4.28;;;36.20;89.10;;;;;;4158614;28;20092;-65
2022/06/14 08:17:11;;;;;;;9.93;4.05;;;36.30;88.40;;;;;;4161377;28;20079;-66
2022/06/14 08:19:20;;;;;;;10.27;4.85;;;36.20;88.20;;;;;;4129176;28;20069;-65
2022/06/14 08:21:32;;;;;;;10.32;3.83;;;36.10;88.80;;;;;;4118380;28;20057;-65
2022/06/14 08:23:53;;;;;;;8.90;3.92;;;36.20;89.30;;;;;;4097090;28;20043;-66
2022/06/14 08:26:18;;;;;;;10.30;4.32;;;36.20;86.20;;;;;;4124952;28;20469;-65
2022/06/14 08:28:44;;;;;;;7.45;3.67;;;36.10;88.10;;;;;;4127932;28;20045;-65
2022/06/14 08:31:05;;;;;;;8.63;4.10;;;36.10;88.50;;;;;;4144378;28;20046;-65
2022/06/14 08:33:17;;;;;;;6.18;3.55;;;36.10;88.50;;;;;;4129571;28;20042;-65
2022/06/14 08:35:39;;;;;;;6.55;3.70;;;36.00;88.60;;;;;;4113404;28;20480;-66
2022/06/14 08:38:02;;;;;;;9.50;3.88;;;36.00;90.30;;;;;;4129977;28;20047;-66
2022/06/14 08:40:13;;;;;;;7.47;4.10;;;35.90;90.40;;;;;;4122243;28;20062;-65
2022/06/14 08:42:31;;;;;;;7.13;4.10;;;35.80;90.50;;;;;;4144468;28;20060;-66
2022/06/14 08:44:46;;;;;;;8.15;4.22;;;35.80;90.50;;;;;;4127557;28;20061;-65
2022/06/14 08:47:10;;;;;;;7.93;4.05;;;35.50;90.80;;;;;;4110610;28;20584;-65
2022/06/14 08:49:29;;;;;;;;;;;35.50;91.00;;;;;;4125649;28;20074;-65
2022/06/14 08:51:45;;;;;;;11.45;4.53;;;35.60;90.90;;;;;;4141465;28;19923;-65
2022/06/14 08:54:09;;;;;;;9.77;4.93;;;35.50;91.20;;;;;;4170323;28;20044;-65
2022/06/14 08:56:25;;;;;;;9.13;5.00;;;35.20;91.50;;;;;;4141267;28;20489;-65
2022/06/14 08:58:41;;;;;;;8.57;4.77;;;35.00;91.70;;;;;;4161527;28;20038;-65
2022/06/14 09:01:14;;;;;;;8.73;4.68;;;35.00;92.10;;;;;;4159993;28;20046;-65
2022/06/14 09:03:23;;;;;;;6.80;4.78;;;35.20;92.00;;;;;;4143162;28;20140;-64
2022/06/14 09:05:48;;;;;;;12.32;8.10;;;35.30;91.80;;;;;;4161692;28;20160;-66
2022/06/14 09:08:06;;;;;;;10.75;5.75;;;35.40;92.20;;;;;;4142050;28;20050;-65
2022/06/14 09:10:35;;;;;;;9.75;5.15;;;35.20;92.00;;;;;;4160674;28;20045;-67
2022/06/14 09:13:07;;;;;;;10.75;4.38;;;35.20;92.30;;;;;;4160349;28;20087;-70
2022/06/14 09:15:22;;;;;;;9.00;4.28;;;35.30;92.20;;;;;;4144129;28;20052;-69
2022/06/14 09:17:46;;;;;;;7.60;4.50;;;35.10;92.10;;;;;;4139702;28;20106;-69
2022/06/14 09:20:01;;;;;;;9.60;4.65;;;35.00;92.40;;;;;;4163513;28;20053;-70
2022/06/14 09:22:11;;;;;;;7.10;4.32;;;35.10;92.50;;;;;;4161897;28;20037;-69
2022/06/14 09:24:34;;;;;;;5.70;4.32;;;35.20;92.40;;;;;;4163677;28;20081;-69
2022/06/14 09:26:49;;;;;;;9.52;4.65;;;35.10;92.30;;;;;;4169719;28;20053;-69
2022/06/14 09:29:06;;;;;;;;;;;35.00;92.10;;;;;;4145022;28;20042;-69
2022/06/14 09:31:48;;;;;;;5.85;4.00;;;34.90;92.00;;;;;;4161691;28;20021;-68
2022/06/14 09:34:14;;;;;;;9.30;4.60;;;34.80;92.10;;;;;;4155133;28;20050;-69
2022/06/14 09:36:51;;;;;;;8.27;4.18;;;34.80;92.40;;;;;;4147241;28;20493;-70
2022/06/14 09:39:20;;;;;;;7.93;4.68;;;34.70;92.60;;;;;;4164960;28;20048;-69
2022/06/14 09:41:32;;;;;;;8.30;4.43;;;34.70;92.60;;;;;;4163213;28;20073;-70
2022/06/14 09:43:42;;;;;;;8.65;4.80;;;34.50;92.40;;;;;;4161917;28;20067;-68
2022/06/14 09:46:00;;;;;;;6.07;4.45;;;34.30;93.00;;;;;;4160711;28;20045;-69
2022/06/14 09:48:36;;;;;;;8.90;5.25;;;34.20;92.90;;;;;;4156951;28;20108;-69
2022/06/14 09:50:55;;;;;;;8.40;5.10;;;34.30;92.80;;;;;;4154740;28;20046;-69
2022/06/14 09:53:25;;;;;;;6.40;4.28;;;34.00;92.90;;;;;;4156537;28;20091;-68
2022/06/14 09:55:51;;;;;;;7.97;4.55;;;34.00;93.00;;;;;;4161952;28;20041;-70
2022/06/14 09:58:14;;;;;;;9.63;4.65;;;34.00;92.80;;;;;;4138029;28;20565;-69
2022/06/14 10:00:21;;;;;;;;;;;34.00;93.00;;;;;;4163881;28;20309;-69
2022/06/14 10:02:52;;;;;;;12.88;5.60;;;33.90;93.60;;;;;;4149048;28;19925;-68
2022/06/14 10:05:06;;;;;;;13.75;6.57;;;33.80;93.40;;;;;;4149520;28;20049;-68
2022/06/14 10:07:28;;;;;;;12.88;6.32;;;33.80;93.20;;;;;;4163488;28;20049;-68
2022/06/14 10:09:52;;;;;;;14.07;5.75;;;33.80;93.70;;;;;;4158139;28;20477;-68
2022/06/14 10:12:05;;;;;;;12.27;5.63;;;33.80;93.80;;;;;;4159243;28;20052;-70
2022/06/14 10:14:24;;;;;;;10.88;5.57;;;33.80;94.00;;;;;;4163266;28;20080;-69
2022/06/14 10:16:53;;;;;;;12.73;5.68;;;33.80;94.10;;;;;;4151434;28;20048;-69
2022/06/14 10:19:12;;;;;;;10.70;5.40;;;33.70;94.20;;;;;;4165370;28;20049;-70
2022/06/14 10:21:24;;;;;;;17.30;5.75;;;33.60;94.60;;;;;;4165682;28;20136;-69
2022/06/14 10:23:44;;;;;;;41.92;28.25;;;33.60;94.50;;;;;;4168439;28;20498;-68
2022/06/14 10:28:42;;;;;;;95.10;73.07;;;33.50;94.70;;;;;;4181218;28;20063;-69
2022/06/14 10:31:06;;;;;;;45.53;33.30;;;33.40;95.00;;;;;;4100232;28;20480;-69
2022/06/14 10:33:22;;;;;;;18.52;13.60;;;33.20;94.90;;;;;;4149026;28;20049;-70
2022/06/14 10:36:08;;;;;;;29.50;20.40;;;33.10;94.50;;;;;;4163359;28;20034;-70
2022/06/14 10:38:35;;;;;;;24.73;19.15;;;33.00;94.30;;;;;;4164680;28;20100;-71
2022/06/14 10:40:41;;;;;;;21.63;14.55;;;33.00;94.30;;;;;;4164685;28;20094;-70
2022/06/14 10:43:05;;;;;;;16.15;9.93;;;33.00;94.40;;;;;;4165811;28;20500;-71
2022/06/14 10:45:28;;;;;;;12.25;6.97;;;33.00;94.10;;;;;;4145919;28;20813;-70
2022/06/14 10:47:49;;;;;;;9.98;5.95;;;32.80;93.90;;;;;;4145942;28;20057;-69
2022/06/14 10:50:15;;;;;;;9.30;5.70;;;32.60;94.30;;;;;;4163200;28;20065;-71
2022/06/14 10:52:35;;;;;;;5.70;3.17;;;32.30;94.00;;;;;;4159725;28;20046;-69
2022/06/14 10:55:02;;;;;;;5.43;2.58;;;32.10;93.50;;;;;;4163158;28;20608;-70
2022/06/14 10:57:10;;;;;;;6.72;2.35;;;31.70;93.50;;;;;;4148311;28;20108;-69
2022/06/14 10:59:20;;;;;;;4.53;2.60;;;31.60;93.70;;;;;;4164616;28;20647;-70
2022/06/14 11:01:34;;;;;;;5.85;2.85;;;31.50;93.60;;;;;;4163251;28;20041;-69
2022/06/14 11:04:03;;;;;;;7.18;2.70;;;31.30;93.90;;;;;;4171062;28;20056;-69
2022/06/14 11:06:35;;;;;;;3.63;2.17;;;31.30;93.80;;;;;;4123916;28;20090;-69
2022/06/14 11:08:52;;;;;;;4.80;2.25;;;30.90;93.90;;;;;;4165433;28;20054;-69
2022/06/14 11:11:12;;;;;;;4.95;2.22;;;30.70;94.30;;;;;;4146213;28;20069;-70
2022/06/14 11:13:43;;;;;;;6.97;2.15;;;31.10;94.20;;;;;;4163028;28;20042;-70
2022/06/14 11:16:02;;;;;;;5.78;2.50;;;31.30;94.10;;;;;;4163037;28;20045;-69
2022/06/14 11:18:18;;;;;;;8.38;4.10;;;31.50;94.40;;;;;;4148055;28;20046;-70
2022/06/14 11:20:43;;;;;;;12.77;9.88;;;31.60;94.80;;;;;;4162897;28;20046;-70
2022/06/14 11:23:00;;;;;;;11.15;7.30;;;31.50;95.20;;;;;;4164067;28;20054;-69
2022/06/14 11:25:30;;;;;;;9.48;5.85;;;31.40;95.30;;;;;;4161767;28;20038;-68
2022/06/14 11:27:54;;;;;;;7.50;5.03;;;31.40;95.30;;;;;;4145053;28;20049;-70
2022/06/14 11:30:18;;;;;;;6.05;4.30;;;31.50;95.40;;;;;;4163490;28;20045;-70
2022/06/14 11:32:31;;;;;;;6.93;3.00;;;31.60;95.20;;;;;;4163404;28;20045;-69
2022/06/14 11:34:43;;;;;;;5.57;3.40;;;31.60;95.30;;;;;;4112505;28;20070;-70
2022/06/14 11:37:12;;;;;;;9.45;5.95;;;31.60;95.50;;;;;;4147205;28;20050;-70
2022/06/14 11:39:26;;;;;;;6.78;4.15;;;31.50;95.80;;;;;;4164417;28;20037;-70
2022/06/14 11:41:44;;;;;;;6.15;3.40;;;31.40;95.90;;;;;;4163745;28;20392;-70
2022/06/14 11:44:14;;;;;;;7.18;3.75;;;31.30;96.20;;;;;;4130891;28;20061;-71
2022/06/14 11:46:36;;;;;;;5.65;3.50;;;31.20;96.00;;;;;;4164629;28;20038;-70
2022/06/14 11:48:44;;;;;;;;;;;31.00;95.70;;;;;;4164603;28;20153;-70
2022/06/14 11:50:52;;;;;;;11.68;5.90;;;31.00;95.60;;;;;;4161939;28;19921;-71
2022/06/14 11:53:00;;;;;;;21.35;13.60;;;31.10;95.80;;;;;;4156426;28;20046;-70
2022/06/14 11:55:20;;;;;;;12.88;6.50;;;31.20;95.80;;;;;;4163294;28;20052;-70